Time;durP1;ratioP1;P1;durP2;ratioP2;P2;SDS_P1;SDS_P2;PMS_P1;PMS_P2;Temp;Humidity;BMP_temperature;BMP_pressure;BME280_temperature;BME280_humidity;BME280_pressure;Samples;Min_cycle;Max_cycle;Signal;HPM_P1;HPM_P2
2024/01/12 00:01:32;;;;;;;0.60;0.30;;;;;;;-6.40;69.45;100039.45;87288;280;137402;-82
2024/01/12 00:03:36;;;;;;;1.20;0.40;;;;;;;-6.40;68.63;100044.11;87212;280;23926;-84
2024/01/12 00:05:38;;;;;;;1.20;0.30;;;;;;;-6.40;68.34;100054.11;87293;272;136719;-80
2024/01/12 00:07:41;;;;;;;0.70;0.40;;;;;;;-6.47;67.77;100062.64;87376;272;22558;-84
2024/01/12 00:09:46;;;;;;;0.50;0.20;;;;;;;-6.47;67.27;100064.73;87174;277;136699;-80
2024/01/12 00:11:47;;;;;;;0.30;0.20;;;;;;;-6.56;67.50;100068.84;87139;272;23189;-80
2024/01/12 00:13:49;;;;;;;0.30;0.20;;;;;;;-6.53;67.77;100072.12;87158;280;136684;-81
2024/01/12 00:15:51;;;;;;;1.70;0.90;;;;;;;-6.54;67.42;100073.95;87026;278;22519;-80
2024/01/12 00:17:53;;;;;;;1.00;0.30;;;;;;;-6.46;67.66;100072.58;87066;281;136268;-79
2024/01/12 00:19:55;;;;;;;1.50;0.70;;;;;;;-6.43;67.95;100082.65;87213;268;22552;-79
2024/01/12 00:21:57;;;;;;;1.30;0.40;;;;;;;-6.47;67.76;100081.99;87193;272;136604;-80
2024/01/12 00:23:58;;;;;;;1.40;0.40;;;;;;;-6.45;67.84;100086.38;87261;271;24001;-80
2024/01/12 00:26:00;;;;;;;0.70;0.30;;;;;;;-6.44;68.16;100087.39;87131;272;136521;-78
2024/01/12 00:28:02;;;;;;;1.40;1.00;;;;;;;-6.46;68.55;100092.84;87184;276;24263;-78
2024/01/12 00:30:06;;;;;;;0.50;0.30;;;;;;;-6.51;68.57;100097.95;87115;273;24178;-78
2024/01/12 00:32:08;;;;;;;0.60;0.30;;;;;;;-6.73;68.42;100101.97;87286;271;137731;-79
2024/01/12 00:34:09;;;;;;;4.20;0.60;;;;;;;-6.81;69.15;100096.16;87223;279;25279;-82
2024/01/12 00:36:11;;;;;;;1.10;0.50;;;;;;;-6.83;69.86;100100.92;87115;276;136874;-77
2024/01/12 00:38:13;;;;;;;1.90;0.40;;;;;;;-6.83;70.16;100097.31;87346;279;22558;-77
2024/01/12 00:40:15;;;;;;;2.00;0.30;;;;;;;-6.81;70.04;100107.04;87335;275;136876;-81
2024/01/12 00:42:17;;;;;;;2.60;0.60;;;;;;;-6.83;69.86;100102.63;87299;278;22580;-80
2024/01/12 00:44:19;;;;;;;1.00;0.50;;;;;;;-6.80;69.95;100109.79;87301;272;137311;-79
2024/01/12 00:46:21;;;;;;;6.00;0.50;;;;;;;-6.87;69.52;100113.92;89100;268;25191;-77
2024/01/12 00:48:23;;;;;;;1.20;0.40;;;;;;;-6.93;70.15;100115.09;88532;268;136683;-78
2024/01/12 00:50:25;;;;;;;1.10;0.70;;;;;;;-6.98;70.05;100117.98;87184;273;22567;-78
2024/01/12 00:52:27;;;;;;;2.00;0.80;;;;;;;-6.98;70.20;100122.83;87229;275;137013;-76
2024/01/12 00:54:30;;;;;;;6.60;1.40;;;;;;;-6.97;69.81;100127.26;87291;280;23352;-77
2024/01/12 00:56:32;;;;;;;0.70;0.50;;;;;;;-6.97;69.85;100132.06;87000;281;136808;-80
2024/01/12 00:58:34;;;;;;;0.60;0.30;;;;;;;-6.99;70.49;100131.50;87203;280;22554;-80
2024/01/12 01:00:36;;;;;;;2.40;1.00;;;;;;;-6.97;70.65;100136.23;87104;280;136792;-77
2024/01/12 01:02:38;;;;;;;1.50;0.50;;;;;;;-7.01;70.81;100137.30;87131;271;22565;-77
2024/01/12 01:04:40;;;;;;;0.90;0.40;;;;;;;-7.05;71.07;100130.76;87054;280;136818;-78
2024/01/12 01:06:42;;;;;;;3.00;0.70;;;;;;;-7.07;71.18;100135.73;87144;272;22558;-77
2024/01/12 01:08:46;;;;;;;0.60;0.50;;;;;;;-7.07;71.14;100140.89;87163;280;136755;-78
2024/01/12 01:10:48;;;;;;;2.10;0.50;;;;;;;-7.07;71.17;100134.67;87337;272;22561;-79
2024/01/12 01:12:49;;;;;;;0.90;0.70;;;;;;;-7.06;71.07;100137.55;87126;271;136710;-78
2024/01/12 01:14:51;;;;;;;0.60;0.50;;;;;;;-7.13;71.65;100133.12;87217;271;25184;-77
2024/01/12 01:16:53;;;;;;;0.70;0.60;;;;;;;-7.17;71.59;100136.58;87306;276;136902;-76
2024/01/12 01:18:55;;;;;;;0.90;0.70;;;;;;;-7.21;72.06;100140.77;87437;268;22572;-79
2024/01/12 01:20:58;;;;;;;1.30;0.80;;;;;;;-7.27;72.11;100142.59;87327;280;136905;-78
2024/01/12 01:23:02;;;;;;;1.00;0.80;;;;;;;-7.26;72.40;100147.73;87194;274;22570;-79
2024/01/12 01:25:06;;;;;;;1.70;0.60;;;;;;;-7.27;72.75;100149.66;87205;280;137001;-78
2024/01/12 01:27:08;;;;;;;1.90;0.60;;;;;;;-7.27;72.95;100151.93;87512;276;23795;-79
2024/01/12 01:29:10;;;;;;;0.80;0.60;;;;;;;-7.25;72.74;100149.21;87445;268;136825;-78
2024/01/12 01:31:12;;;;;;;2.10;0.80;;;;;;;-7.25;72.86;100153.39;87853;279;22563;-79
2024/01/12 01:33:14;;;;;;;1.90;0.80;;;;;;;-7.25;73.07;100158.73;87216;270;136887;-75
2024/01/12 01:35:16;;;;;;;0.80;0.80;;;;;;;-7.23;73.24;100157.11;87191;279;22752;-79
2024/01/12 01:37:18;;;;;;;1.00;0.80;;;;;;;-7.13;72.81;100155.20;87185;272;137197;-78
2024/01/12 01:39:20;;;;;;;3.50;1.10;;;;;;;-7.11;72.51;100157.84;87228;272;23755;-77
2024/01/12 01:41:22;;;;;;;1.70;0.60;;;;;;;-7.10;71.86;100161.09;87227;268;137041;-78
2024/01/12 01:43:24;;;;;;;0.50;0.40;;;;;;;-7.09;72.01;100161.89;87192;267;22572;-75
2024/01/12 01:45:26;;;;;;;0.80;0.50;;;;;;;-7.17;72.60;100166.13;87054;272;138332;-77
2024/01/12 01:47:29;;;;;;;1.70;0.80;;;;;;;-7.15;72.92;100169.13;87126;268;25165;-73
2024/01/12 01:49:31;;;;;;;0.90;0.50;;;;;;;-7.20;73.59;100171.08;87117;268;136707;-74
2024/01/12 01:51:35;;;;;;;0.90;0.50;;;;;;;-7.23;73.50;100173.16;88364;264;22564;-74
2024/01/12 01:53:38;;;;;;;3.30;0.80;;;;;;;-7.27;73.66;100171.42;87002;271;137137;-71
2024/01/12 01:55:40;;;;;;;3.90;0.60;;;;;;;-7.18;73.77;100170.11;87422;271;22595;-77
2024/01/12 01:57:42;;;;;;;1.40;0.30;;;;;;;-7.11;73.57;100167.02;86969;277;136708;-73
2024/01/12 01:59:46;;;;;;;1.30;0.50;;;;;;;-7.13;73.80;100172.45;88253;268;22657;-73
2024/01/12 02:01:48;;;;;;;1.60;0.70;;;;;;;-7.13;74.01;100169.35;87795;268;137121;-75
2024/01/12 02:03:50;;;;;;;1.50;0.60;;;;;;;-7.12;74.24;100175.17;87404;268;25196;-76
2024/01/12 02:05:54;;;;;;;6.40;0.90;;;;;;;-7.11;73.83;100175.29;87174;280;136878;-75
2024/01/12 02:07:57;;;;;;;1.10;0.70;;;;;;;-7.19;74.11;100176.74;87371;276;22640;-75
2024/01/12 02:09:58;;;;;;;1.70;1.10;;;;;;;-7.26;74.89;100181.26;87306;271;138117;-74
2024/01/12 02:12:04;;;;;;;0.50;0.50;;;;;;;-7.38;75.14;100179.94;87270;271;25217;-75
2024/01/12 02:14:07;;;;;;;1.70;0.80;;;;;;;-7.48;76.25;100179.25;87213;280;23644;-75
2024/01/12 02:16:09;;;;;;;0.90;0.80;;;;;;;-7.50;76.87;100182.47;87169;276;138624;-75
2024/01/12 02:18:11;;;;;;;1.00;0.90;;;;;;;-7.52;77.18;100189.43;87150;271;22559;-77
2024/01/12 02:20:13;;;;;;;2.60;1.00;;;;;;;-7.56;77.42;100191.73;87252;272;137055;-74
2024/01/12 02:22:15;;;;;;;0.70;0.70;;;;;;;-7.55;77.07;100193.90;87291;271;22579;-75
2024/01/12 02:24:19;;;;;;;0.60;0.40;;;;;;;-7.53;77.40;100200.56;87135;275;137165;-75
2024/01/12 02:26:21;;;;;;;1.80;0.70;;;;;;;-7.48;77.84;100197.40;87027;269;25159;-74
2024/01/12 02:28:23;;;;;;;0.80;0.80;;;;;;;-7.38;77.50;100196.38;87076;272;137251;-75
2024/01/12 02:30:25;;;;;;;1.00;0.60;;;;;;;-7.36;77.62;100197.65;87068;272;22571;-73
2024/01/12 02:32:26;;;;;;;1.30;0.80;;;;;;;-7.41;77.74;100202.55;87074;272;136894;-72
2024/01/12 02:34:29;;;;;;;3.50;0.80;;;;;;;-7.42;77.33;100197.42;87170;271;22559;-75
2024/01/12 02:36:30;;;;;;;1.00;0.70;;;;;;;-7.42;77.33;100197.27;87174;271;136551;-74
2024/01/12 02:38:32;;;;;;;0.90;0.90;;;;;;;-7.47;77.66;100211.31;87112;272;22875;-73
2024/01/12 02:40:34;;;;;;;1.90;0.80;;;;;;;-7.46;77.32;100214.56;86851;274;136614;-74
2024/01/12 02:42:36;;;;;;;1.20;0.40;;;;;;;-7.39;77.16;100221.61;87048;275;25460;-73
2024/01/12 02:44:38;;;;;;;1.30;0.60;;;;;;;-7.38;76.84;100224.16;86995;280;136989;-75
2024/01/12 02:46:40;;;;;;;1.20;0.50;;;;;;;-7.45;77.28;100225.02;87123;276;24010;-73
2024/01/12 02:48:42;;;;;;;0.50;0.40;;;;;;;-7.51;77.59;100222.73;86981;272;136971;-75
2024/01/12 02:50:44;;;;;;;2.40;0.50;;;;;;;-7.47;77.27;100232.86;87102;273;22597;-74
2024/01/12 02:52:46;;;;;;;0.70;0.40;;;;;;;-7.44;77.30;100231.71;87167;272;136934;-72
2024/01/12 02:54:48;;;;;;;1.30;0.80;;;;;;;-7.41;77.07;100236.39;87224;272;24093;-74
2024/01/12 02:56:50;;;;;;;0.80;0.60;;;;;;;-7.42;76.86;100237.45;87108;273;137003;-73
2024/01/12 02:58:51;;;;;;;0.90;0.90;;;;;;;-7.49;76.90;100232.83;87261;268;22641;-77
2024/01/12 03:00:53;;;;;;;1.30;0.70;;;;;;;-7.54;77.21;100236.67;87150;268;137048;-74
2024/01/12 03:02:56;;;;;;;1.30;0.90;;;;;;;-7.49;77.18;100243.88;87391;272;22577;-73
2024/01/12 03:04:58;;;;;;;1.20;1.10;;;;;;;-7.52;77.02;100245.90;87140;272;137107;-73
2024/01/12 03:07:01;;;;;;;1.30;0.50;;;;;;;-7.46;76.54;100249.94;87283;279;22567;-72
2024/01/12 03:09:03;;;;;;;0.90;0.80;;;;;;;-7.56;77.14;100253.70;87110;272;138352;-71
2024/01/12 03:11:06;;;;;;;2.30;0.70;;;;;;;-7.59;77.05;100259.53;87206;276;22563;-71
2024/01/12 03:13:08;;;;;;;0.70;0.70;;;;;;;-7.53;76.83;100264.78;87135;272;137843;-72
2024/01/12 03:15:10;;;;;;;2.30;0.80;;;;;;;-7.65;76.87;100263.77;87217;280;24039;-71
2024/01/12 03:17:11;;;;;;;1.20;0.70;;;;;;;-7.66;77.49;100264.03;87014;272;137078;-70
2024/01/12 03:19:14;;;;;;;1.40;0.70;;;;;;;-7.72;77.99;100260.48;87087;280;22577;-70
2024/01/12 03:21:17;;;;;;;1.30;0.60;;;;;;;-7.71;77.85;100266.16;86948;273;137155;-71
2024/01/12 03:23:19;;;;;;;1.80;1.00;;;;;;;-7.75;77.89;100269.42;87283;276;23748;-72
2024/01/12 03:25:20;;;;;;;0.80;0.70;;;;;;;-7.80;78.18;100272.11;86948;281;137091;-72
2024/01/12 03:27:22;;;;;;;3.20;1.30;;;;;;;-7.85;78.53;100272.99;87218;280;25390;-74
2024/01/12 03:29:26;;;;;;;1.20;1.10;;;;;;;-7.83;78.42;100279.13;87012;273;136799;-72
2024/01/12 03:31:28;;;;;;;1.30;0.70;;;;;;;-7.85;77.92;100281.13;87092;268;22580;-70
2024/01/12 03:33:30;;;;;;;0.90;0.90;;;;;;;-7.84;77.64;100282.11;86764;278;191754;-73
2024/01/12 03:35:35;;;;;;;2.10;0.80;;;;;;;-7.90;78.15;100282.58;87119;273;24060;-74
2024/01/12 03:37:37;;;;;;;1.60;0.50;;;;;;;-7.96;78.96;100284.78;87230;264;136729;-70
2024/01/12 03:39:38;;;;;;;1.30;0.70;;;;;;;-8.05;79.23;100285.00;87300;280;25099;-72
2024/01/12 03:41:40;;;;;;;0.80;0.70;;;;;;;-8.11;79.18;100291.33;87036;264;137556;-70
2024/01/12 03:43:42;;;;;;;1.00;0.50;;;;;;;-8.17;79.53;100290.70;87422;266;22563;-75
2024/01/12 03:45:44;;;;;;;2.40;0.90;;;;;;;-8.22;80.14;100295.10;87150;268;136973;-73
2024/01/12 03:47:46;;;;;;;2.00;0.60;;;;;;;-8.22;80.07;100300.95;87234;268;25125;-71
2024/01/12 03:49:48;;;;;;;2.90;0.70;;;;;;;-8.21;80.66;100306.41;87171;276;136753;-73
2024/01/12 03:51:57;;;;;;;3.10;0.80;;;;;;;-8.27;80.99;100308.06;87181;279;22561;-72
2024/01/12 03:54:15;;;;;;;0.60;0.60;;;;;;;-8.25;81.18;100314.16;87063;281;22642;-71
2024/01/12 03:56:16;;;;;;;1.30;0.30;;;;;;;-8.29;81.39;100314.20;87180;279;136924;-73
2024/01/12 03:58:18;;;;;;;1.40;0.90;;;;;;;-8.29;81.35;100315.89;87235;264;22726;-72
2024/01/12 04:00:20;;;;;;;1.20;1.10;;;;;;;-8.36;82.02;100314.83;87196;279;137061;-71
2024/01/12 04:02:22;;;;;;;3.00;1.90;;;;;;;-8.38;82.71;100315.81;87225;268;24548;-72
2024/01/12 04:04:24;;;;;;;2.10;0.90;;;;;;;-8.38;82.87;100318.21;87199;271;136877;-70
2024/01/12 04:06:26;;;;;;;3.00;0.80;;;;;;;-8.35;82.78;100314.47;87340;271;25249;-71
2024/01/12 04:08:29;;;;;;;0.80;0.30;;;;;;;-8.32;82.73;100315.16;87331;275;136898;-71
2024/01/12 04:10:30;;;;;;;1.50;0.60;;;;;;;-8.29;82.97;100320.20;87046;281;24031;-71
2024/01/12 04:12:32;;;;;;;0.80;0.80;;;;;;;-8.29;82.98;100320.08;87198;276;137019;-73
2024/01/12 04:14:35;;;;;;;1.40;0.60;;;;;;;-8.29;82.85;100321.09;87252;271;22576;-72
2024/01/12 04:16:37;;;;;;;0.80;0.60;;;;;;;-8.28;83.03;100326.54;87145;268;137014;-73
2024/01/12 04:18:39;;;;;;;1.40;0.80;;;;;;;-8.26;83.17;100328.85;87175;268;22559;-71
2024/01/12 04:20:42;;;;;;;1.80;0.50;;;;;;;-8.28;82.89;100333.95;87172;264;138076;-72
2024/01/12 04:22:44;;;;;;;2.60;0.60;;;;;;;-8.35;83.07;100337.20;87146;278;22604;-72
2024/01/12 04:24:46;;;;;;;4.00;0.50;;;;;;;-8.40;83.57;100342.26;87096;280;136757;-72
2024/01/12 04:26:48;;;;;;;0.90;0.80;;;;;;;-8.42;83.84;100347.04;87271;271;24001;-72
2024/01/12 04:28:50;;;;;;;1.50;0.90;;;;;;;-8.41;84.04;100351.95;86989;268;137204;-74
2024/01/12 04:30:54;;;;;;;1.00;0.90;;;;;;;-8.33;83.47;100358.65;87006;278;24461;-74
2024/01/12 04:32:56;;;;;;;1.10;0.80;;;;;;;-8.31;83.08;100354.27;87063;271;136771;-72
2024/01/12 04:34:58;;;;;;;1.70;0.90;;;;;;;-8.46;83.91;100356.30;87157;263;25094;-71
2024/01/12 04:37:00;;;;;;;2.10;0.60;;;;;;;-8.48;83.91;100356.08;87052;271;137835;-72
2024/01/12 04:39:05;;;;;;;0.90;0.90;;;;;;;-8.60;84.95;100360.73;87310;271;23789;-73
2024/01/12 04:41:07;;;;;;;1.20;0.70;;;;;;;-8.62;85.09;100363.23;87119;272;138163;-73
2024/01/12 04:43:11;;;;;;;2.50;1.80;;;;;;;-8.63;84.83;100369.61;87283;271;22571;-75
2024/01/12 04:45:13;;;;;;;4.20;1.10;;;;;;;-8.62;84.87;100370.47;87175;272;138155;-73
2024/01/12 04:47:15;;;;;;;1.10;0.90;;;;;;;-8.60;84.97;100373.67;87239;272;22567;-72
2024/01/12 04:49:16;;;;;;;5.00;2.50;;;;;;;-8.62;85.02;100380.95;87028;273;137281;-72
2024/01/12 04:51:18;;;;;;;1.40;1.20;;;;;;;-8.67;85.19;100383.95;87152;281;22615;-73
2024/01/12 04:53:20;;;;;;;1.10;0.90;;;;;;;-8.73;85.47;100387.81;87028;280;136884;-75
2024/01/12 04:55:23;;;;;;;1.50;0.90;;;;;;;-8.71;85.56;100394.30;87245;263;23736;-73
2024/01/12 04:57:25;;;;;;;1.10;0.60;;;;;;;-8.70;85.80;100396.79;87066;268;138276;-73
2024/01/12 04:59:27;;;;;;;3.50;0.80;;;;;;;-8.69;85.79;100393.98;87284;276;24025;-72
2024/01/12 05:01:29;;;;;;;3.50;0.80;;;;;;;-8.67;85.71;100393.39;87134;269;136911;-72
2024/01/12 05:03:32;;;;;;;2.60;1.20;;;;;;;-8.66;85.61;100403.36;87203;276;22652;-73
2024/01/12 05:05:36;;;;;;;3.30;1.10;;;;;;;-8.71;85.49;100399.44;87061;280;137351;-71
2024/01/12 05:07:39;;;;;;;2.60;1.10;;;;;;;-8.72;85.48;100402.74;87310;268;23830;-72
2024/01/12 05:09:41;;;;;;;1.40;0.60;;;;;;;-8.73;85.50;100407.48;87248;272;142269;-71
2024/01/12 05:11:43;;;;;;;1.50;0.70;;;;;;;-8.76;85.74;100409.98;87086;272;22559;-73
2024/01/12 05:13:45;;;;;;;1.20;1.00;;;;;;;-8.78;85.89;100413.87;87048;280;137535;-71
2024/01/12 05:15:47;;;;;;;3.70;2.20;;;;;;;-8.75;85.61;100415.77;86842;271;22598;-72
2024/01/12 05:17:48;;;;;;;4.60;1.30;;;;;;;-8.66;85.18;100416.95;87085;280;137113;-73
2024/01/12 05:19:50;;;;;;;2.20;1.30;;;;;;;-8.64;84.77;100416.70;87097;272;24254;-72
2024/01/12 05:21:52;;;;;;;1.40;1.30;;;;;;;-8.79;85.21;100420.94;87061;280;137306;-74
2024/01/12 05:23:55;;;;;;;1.40;1.10;;;;;;;-8.89;85.24;100422.90;87041;274;25246;-73
2024/01/12 05:25:59;;;;;;;1.70;1.00;;;;;;;-8.96;85.44;100428.00;87038;271;137192;-73
2024/01/12 05:28:01;;;;;;;1.10;0.60;;;;;;;-8.99;85.99;100436.58;86966;277;25185;-74
2024/01/12 05:30:03;;;;;;;5.90;1.40;;;;;;;-8.98;85.92;100436.90;87150;268;138576;-74
2024/01/12 05:32:06;;;;;;;0.90;0.90;;;;;;;-8.98;86.44;100440.86;87082;276;137092;-72
2024/01/12 05:34:08;;;;;;;2.70;1.10;;;;;;;-8.99;86.91;100442.96;87150;273;22594;-73
2024/01/12 05:36:10;;;;;;;4.10;0.90;;;;;;;-8.98;86.52;100447.03;87058;280;136932;-72
2024/01/12 05:38:12;;;;;;;1.50;0.70;;;;;;;-9.01;86.69;100443.17;87271;268;24612;-73
2024/01/12 05:40:14;;;;;;;1.20;0.80;;;;;;;-9.03;87.00;100444.80;87035;268;137037;-72
2024/01/12 05:42:16;;;;;;;3.00;1.90;;;;;;;-9.12;87.48;100443.12;87226;270;22571;-72
2024/01/12 05:44:18;;;;;;;1.70;1.40;;;;;;;-9.16;87.66;100447.92;87343;269;137333;-72
2024/01/12 05:46:19;;;;;;;2.00;1.50;;;;;;;-9.23;88.88;100446.80;87227;269;25107;-75
2024/01/12 05:48:21;;;;;;;4.90;1.10;;;;;;;-9.23;89.25;100450.73;87141;269;136888;-73
2024/01/12 05:50:23;;;;;;;1.70;1.10;;;;;;;-9.30;89.92;100450.02;87249;266;22555;-72
2024/01/12 05:52:25;;;;;;;4.10;3.10;;;;;;;-9.31;90.25;100459.52;87162;277;137216;-78
2024/01/12 05:54:27;;;;;;;2.30;2.10;;;;;;;-9.30;90.85;100456.05;87277;268;23243;-76
2024/01/12 05:56:29;;;;;;;2.10;1.20;;;;;;;-9.27;91.59;100458.50;87335;268;137790;-77
2024/01/12 05:58:31;;;;;;;1.40;0.60;;;;;;;-9.23;90.74;100461.09;87943;272;24013;-74
2024/01/12 06:00:33;;;;;;;1.30;0.80;;;;;;;-9.21;90.36;100460.67;87043;272;136947;-76
2024/01/12 06:02:35;;;;;;;1.90;1.10;;;;;;;-9.25;90.51;100456.17;87226;270;24010;-74
2024/01/12 06:04:37;;;;;;;1.10;1.00;;;;;;;-9.21;90.23;100465.49;87130;270;137083;-75
2024/01/12 06:06:40;;;;;;;1.30;1.00;;;;;;;-9.19;89.89;100463.54;87156;279;22585;-74
2024/01/12 06:08:43;;;;;;;3.80;0.60;;;;;;;-9.17;89.79;100462.77;88200;265;137338;-73
2024/01/12 06:10:45;;;;;;;1.80;0.90;;;;;;;-9.17;89.63;100460.17;87392;269;22575;-73
2024/01/12 06:12:47;;;;;;;2.50;1.10;;;;;;;-9.14;89.36;100464.38;87079;269;137148;-75
2024/01/12 06:14:49;;;;;;;0.90;0.70;;;;;;;-9.21;89.02;100464.98;87956;265;22575;-75
2024/01/12 06:16:52;;;;;;;4.00;1.70;;;;;;;-9.21;89.45;100469.95;87315;275;136518;-75
2024/01/12 06:18:54;;;;;;;3.30;1.70;;;;;;;-9.20;89.23;100470.97;87228;270;24500;-76
2024/01/12 06:20:56;;;;;;;4.40;1.20;;;;;;;-9.21;89.06;100466.52;87178;273;136902;-76
2024/01/12 06:22:58;;;;;;;8.80;1.80;;;;;;;-9.23;88.87;100465.38;87178;273;22575;-74
2024/01/12 06:25:00;;;;;;;5.60;1.30;;;;;;;-9.18;88.83;100464.87;87079;273;136919;-74
2024/01/12 06:27:02;;;;;;;1.90;0.90;;;;;;;-9.09;88.72;100472.45;87167;273;22709;-76
2024/01/12 06:29:06;;;;;;;4.30;2.30;;;;;;;-9.03;88.34;100470.98;87087;269;137027;-73
2024/01/12 06:31:07;;;;;;;2.90;1.50;;;;;;;-8.96;87.41;100477.27;87151;269;22493;-75
2024/01/12 06:33:14;;;;;;;4.80;2.80;;;;;;;-8.94;86.46;100472.02;86986;269;140588;-73
2024/01/12 06:35:16;;;;;;;4.80;1.70;;;;;;;-8.89;86.50;100474.56;87987;265;22590;-73
2024/01/12 06:37:18;;;;;;;6.60;1.80;;;;;;;-8.83;85.59;100479.15;87061;265;138370;-75
2024/01/12 06:39:20;;;;;;;1.60;1.20;;;;;;;-8.86;85.62;100479.45;87093;270;22841;-76
2024/01/12 06:41:22;;;;;;;3.70;1.60;;;;;;;-8.80;85.33;100480.42;87432;273;138959;-75
2024/01/12 06:43:25;;;;;;;4.10;1.70;;;;;;;-8.77;85.19;100481.35;87068;270;24046;-77
2024/01/12 06:45:29;;;;;;;5.00;0.70;;;;;;;-8.74;84.86;100485.87;87084;266;139223;-77
2024/01/12 06:47:31;;;;;;;2.00;1.00;;;;;;;-8.75;83.85;100488.17;87195;270;25152;-75
2024/01/12 06:49:33;;;;;;;3.60;1.20;;;;;;;-8.86;84.04;100481.17;87149;276;137101;-76
2024/01/12 06:51:36;;;;;;;1.90;1.30;;;;;;;-8.84;84.06;100479.20;87164;270;22571;-76
2024/01/12 06:53:39;;;;;;;3.10;1.50;;;;;;;-8.85;83.87;100479.41;87258;269;137361;-75
2024/01/12 06:55:41;;;;;;;1.40;0.90;;;;;;;-8.77;84.19;100481.00;87248;269;22592;-75
2024/01/12 06:57:46;;;;;;;4.00;1.70;;;;;;;-8.76;83.62;100474.41;87086;277;137578;-75
2024/01/12 06:59:48;;;;;;;2.40;1.20;;;;;;;-8.80;83.98;100481.95;87300;273;25101;-76
2024/01/12 07:01:50;;;;;;;2.20;0.60;;;;;;;-8.82;83.69;100476.37;87146;269;136917;-74
2024/01/12 07:03:52;;;;;;;2.10;1.00;;;;;;;-8.83;84.55;100485.00;87227;269;22555;-75
2024/01/12 07:05:54;;;;;;;2.80;1.30;;;;;;;-8.73;83.70;100484.98;87093;262;136737;-75
2024/01/12 07:07:58;;;;;;;2.90;2.00;;;;;;;-8.78;83.56;100485.85;87369;269;22593;-76
2024/01/12 07:09:59;;;;;;;5.40;1.50;;;;;;;-8.73;83.40;100485.30;87128;270;137949;-75
2024/01/12 07:12:02;;;;;;;1.60;1.00;;;;;;;-8.70;83.47;100496.55;87253;273;22556;-74
2024/01/12 07:14:05;;;;;;;3.60;1.70;;;;;;;-8.76;83.04;100499.38;87105;264;24810;-73
2024/01/12 07:16:07;;;;;;;1.60;1.20;;;;;;;-8.70;82.35;100500.52;87057;273;138033;-74
2024/01/12 07:18:09;;;;;;;3.40;1.30;;;;;;;-8.67;82.74;100504.34;87125;270;24016;-74
2024/01/12 07:20:11;;;;;;;2.60;2.10;;;;;;;-8.68;82.64;100506.11;87089;276;137698;-75
2024/01/12 07:22:13;;;;;;;1.60;1.20;;;;;;;-8.65;82.67;100513.73;87271;272;23138;-74
2024/01/12 07:24:15;;;;;;;3.10;1.00;;;;;;;-8.61;82.42;100509.79;87119;270;138374;-74
2024/01/12 07:26:17;;;;;;;1.50;1.00;;;;;;;-8.57;82.38;100515.16;87279;264;25127;-72
2024/01/12 07:28:19;;;;;;;2.30;2.10;;;;;;;-8.52;81.85;100516.69;87209;265;139947;-77
2024/01/12 07:30:20;;;;;;;2.10;1.10;;;;;;;-8.55;82.21;100517.65;87214;268;22563;-73
2024/01/12 07:32:23;;;;;;;2.20;1.40;;;;;;;-8.55;81.88;100516.46;87204;270;138189;-79
2024/01/12 07:35:40;;;;;;;2.90;2.30;;;;;;;-8.65;83.10;100531.32;85535;299;601903;-75
2024/01/12 07:37:44;;;;;;;2.30;1.30;;;;;;;-8.72;83.63;100535.24;86438;287;135390;-76
2024/01/12 07:39:46;;;;;;;3.80;2.10;;;;;;;-8.77;83.63;100529.21;86372;291;24034;-74
2024/01/12 07:41:48;;;;;;;2.70;1.80;;;;;;;-8.85;84.05;100526.95;86191;290;135406;-76
2024/01/12 07:43:50;;;;;;;2.20;1.00;;;;;;;-8.86;85.25;100539.23;86406;291;22576;-77
2024/01/12 07:45:55;;;;;;;2.80;1.50;;;;;;;-8.83;85.88;100535.83;86172;287;137505;-77
2024/01/12 07:47:57;;;;;;;3.10;2.10;;;;;;;-8.77;84.32;100543.52;86349;288;22571;-75
2024/01/12 07:49:59;;;;;;;3.10;1.10;;;;;;;-8.71;83.87;100537.61;86281;290;149766;-76
2024/01/12 07:52:01;;;;;;;2.70;1.90;;;;;;;-8.66;84.07;100537.91;86522;289;22574;-73
2024/01/12 07:54:03;;;;;;;1.50;1.40;;;;;;;-8.67;83.00;100535.71;86537;277;22590;-77
2024/01/12 07:56:06;;;;;;;2.30;1.30;;;;;;;-8.64;83.22;100537.14;86373;288;138330;-76
2024/01/12 07:58:07;;;;;;;5.10;1.30;;;;;;;-8.62;82.64;100544.30;86424;285;24532;-76
2024/01/12 08:00:11;;;;;;;3.80;1.70;;;;;;;-8.64;81.96;100540.41;86383;288;136962;-76
2024/01/12 08:02:14;;;;;;;4.00;2.10;;;;;;;-8.61;81.95;100541.84;86315;284;24094;-75
2024/01/12 08:04:16;;;;;;;3.70;2.40;;;;;;;-8.64;82.55;100541.64;86307;285;136771;-76
2024/01/12 08:06:18;;;;;;;4.00;1.30;;;;;;;-8.59;82.49;100545.57;86271;290;22556;-75
2024/01/12 08:08:20;;;;;;;4.00;1.80;;;;;;;-8.53;82.19;100547.39;86282;287;136840;-76
2024/01/12 08:10:23;;;;;;;2.40;1.40;;;;;;;-8.46;81.75;100540.05;86504;288;22753;-74
2024/01/12 08:12:25;;;;;;;2.40;1.50;;;;;;;-8.39;81.60;100542.99;86381;286;136294;-75
2024/01/12 08:14:27;;;;;;;5.90;1.50;;;;;;;-8.33;80.51;100546.73;86357;285;22575;-75
2024/01/12 08:16:31;;;;;;;1.60;0.80;;;;;;;-8.30;81.01;100546.60;86231;289;136824;-75
2024/01/12 08:18:34;;;;;;;2.50;1.50;;;;;;;-8.35;80.87;100555.58;86755;282;22737;-74
2024/01/12 08:20:36;;;;;;;1.90;1.50;;;;;;;-8.32;80.49;100559.27;86459;282;136609;-74
2024/01/12 08:22:38;;;;;;;3.20;2.20;;;;;;;-8.32;79.89;100561.35;86621;282;22607;-74
2024/01/12 08:24:40;;;;;;;3.70;2.10;;;;;;;-8.29;80.08;100562.97;86401;283;136578;-75
2024/01/12 08:26:47;;;;;;;4.60;1.80;;;;;;;-8.37;80.86;100561.21;86717;286;24020;-74
2024/01/12 08:28:54;;;;;;;5.70;1.30;;;;;;;-8.30;81.02;100560.75;86379;283;136684;-74
2024/01/12 08:30:57;;;;;;;2.40;1.30;;;;;;;-8.32;80.05;100563.05;86492;287;22855;-75
2024/01/12 08:32:59;;;;;;;2.70;1.10;;;;;;;-8.28;79.71;100567.58;86555;285;137596;-76
2024/01/12 08:35:01;;;;;;;1.30;1.20;;;;;;;-8.40;79.29;100561.67;86635;283;24759;-76
2024/01/12 08:37:03;;;;;;;4.70;1.10;;;;;;;-8.41;79.39;100565.15;86604;285;136716;-75
2024/01/12 08:39:06;;;;;;;0.40;0.40;;;;;;;-8.48;80.12;100562.87;86645;284;23751;-76
2024/01/12 08:41:08;;;;;;;2.40;1.00;;;;;;;-8.43;79.74;100563.54;86535;274;137427;-77
2024/01/12 08:43:12;;;;;;;1.20;1.00;;;;;;;-8.39;80.07;100570.25;86566;283;26314;-76
2024/01/12 08:45:14;;;;;;;1.20;0.80;;;;;;;-8.34;80.35;100579.02;86546;282;136605;-75
2024/01/12 08:47:16;;;;;;;1.50;0.80;;;;;;;-8.25;79.70;100580.19;86792;277;22577;-75
2024/01/12 08:49:21;;;;;;;2.80;1.00;;;;;;;-8.18;79.67;100581.12;86516;287;136031;-75
2024/01/12 08:51:24;;;;;;;1.50;1.00;;;;;;;-8.09;79.30;100582.13;86644;276;22569;-73
2024/01/12 08:53:26;;;;;;;2.20;1.00;;;;;;;-7.98;79.71;100584.94;86603;285;137442;-77
2024/01/12 08:55:29;;;;;;;2.10;1.20;;;;;;;-7.84;79.44;100581.42;86782;285;22602;-76
2024/01/12 08:57:31;;;;;;;2.00;1.00;;;;;;;-7.74;78.79;100578.39;86623;285;137885;-76
2024/01/12 08:59:32;;;;;;;3.10;0.90;;;;;;;-7.69;78.48;100584.93;86693;274;24078;-77
2024/01/12 09:01:34;;;;;;;3.50;0.80;;;;;;;-7.64;78.09;100589.55;86497;282;136672;-75
2024/01/12 09:03:36;;;;;;;2.90;1.10;;;;;;;-7.60;77.29;100590.94;86655;285;22602;-76
2024/01/12 09:05:39;;;;;;;4.10;1.20;;;;;;;-7.57;76.90;100592.73;86402;287;136352;-76
2024/01/12 09:07:41;;;;;;;3.20;1.60;;;;;;;-7.57;76.62;100592.53;86675;282;24488;-75
2024/01/12 09:09:45;;;;;;;3.00;1.00;;;;;;;-7.63;75.60;100598.31;86952;274;137764;-78
2024/01/12 09:11:47;;;;;;;1.80;0.90;;;;;;;-7.65;76.09;100595.63;87030;273;22546;-79
2024/01/12 09:13:49;;;;;;;1.10;0.70;;;;;;;-7.61;76.27;100596.16;87348;277;136283;-75
2024/01/12 09:15:51;;;;;;;1.00;0.50;;;;;;;-7.57;76.17;100595.11;86988;278;25079;-74
2024/01/12 09:17:54;;;;;;;1.90;0.70;;;;;;;-7.61;75.58;100595.45;86928;273;136241;-76
2024/01/12 09:19:56;;;;;;;1.60;1.00;;;;;;;-7.63;76.53;100596.76;87067;266;22564;-75
2024/01/12 09:21:59;;;;;;;1.30;0.70;;;;;;;-7.63;77.50;100591.94;87063;281;136359;-74
2024/01/12 09:24:00;;;;;;;2.40;1.20;;;;;;;-7.57;77.63;100585.13;86976;274;22523;-77
2024/01/12 09:26:03;;;;;;;0.70;0.70;;;;;;;-7.50;77.72;100589.28;86971;281;24264;-79
2024/01/12 09:28:05;;;;;;;1.70;0.90;;;;;;;-7.45;77.36;100588.70;86843;278;136841;-72
2024/01/12 09:30:08;;;;;;;1.80;1.10;;;;;;;-7.39;76.84;100589.70;86973;274;22667;-74
2024/01/12 09:32:10;;;;;;;4.20;1.30;;;;;;;-7.34;76.37;100591.70;87149;277;136766;-76
2024/01/12 09:34:12;;;;;;;2.00;1.30;;;;;;;-7.36;75.18;100589.39;87130;270;24288;-75